sensor_id;sensor_type;location;lat;lon;timestamp;P1;durP1;ratioP1;P2;durP2;ratioP2
43509;SDS011;29105;57.764;40.952;2023-09-18T00:00:43;3.95;;;3.03;;
43509;SDS011;29105;57.764;40.952;2023-09-18T00:03:09;4.20;;;3.17;;
43509;SDS011;29105;57.764;40.952;2023-09-18T00:05:35;6.18;;;3.38;;
43509;SDS011;29105;57.764;40.952;2023-09-18T00:08:01;6.72;;;2.95;;
43509;SDS011;29105;57.764;40.952;2023-09-18T00:10:28;5.82;;;3.50;;
43509;SDS011;29105;57.764;40.952;2023-09-18T00:12:56;5.85;;;3.58;;
43509;SDS011;29105;57.764;40.952;2023-09-18T00:15:22;7.30;;;3.28;;
43509;SDS011;29105;57.764;40.952;2023-09-18T00:17:48;5.68;;;3.22;;
43509;SDS011;29105;57.764;40.952;2023-09-18T00:20:13;5.82;;;3.38;;
43509;SDS011;29105;57.764;40.952;2023-09-18T00:22:42;5.07;;;2.83;;
43509;SDS011;29105;57.764;40.952;2023-09-18T00:25:08;8.95;;;4.07;;
43509;SDS011;29105;57.764;40.952;2023-09-18T00:27:34;6.00;;;3.30;;
43509;SDS011;29105;57.764;40.952;2023-09-18T00:30:02;7.88;;;3.90;;
43509;SDS011;29105;57.764;40.952;2023-09-18T00:32:30;7.45;;;3.42;;
43509;SDS011;29105;57.764;40.952;2023-09-18T00:34:56;6.60;;;3.70;;
43509;SDS011;29105;57.764;40.952;2023-09-18T00:37:22;6.28;;;2.42;;
43509;SDS011;29105;57.764;40.952;2023-09-18T00:39:49;5.85;;;3.25;;
43509;SDS011;29105;57.764;40.952;2023-09-18T00:42:15;8.07;;;3.58;;
43509;SDS011;29105;57.764;40.952;2023-09-18T00:44:43;3.92;;;2.28;;
43509;SDS011;29105;57.764;40.952;2023-09-18T00:47:09;6.55;;;4.00;;
43509;SDS011;29105;57.764;40.952;2023-09-18T00:49:36;6.68;;;3.72;;
43509;SDS011;29105;57.764;40.952;2023-09-18T00:52:02;5.55;;;3.53;;
43509;SDS011;29105;57.764;40.952;2023-09-18T00:54:28;6.75;;;3.90;;
43509;SDS011;29105;57.764;40.952;2023-09-18T00:56:55;5.18;;;3.20;;
43509;SDS011;29105;57.764;40.952;2023-09-18T00:59:20;6.60;;;3.53;;
43509;SDS011;29105;57.764;40.952;2023-09-18T01:01:47;5.65;;;3.33;;
43509;SDS011;29105;57.764;40.952;2023-09-18T01:04:14;5.10;;;3.15;;
43509;SDS011;29105;57.764;40.952;2023-09-18T01:06:41;15.35;;;3.60;;
43509;SDS011;29105;57.764;40.952;2023-09-18T01:09:07;5.85;;;3.08;;
43509;SDS011;29105;57.764;40.952;2023-09-18T01:14:22;4.97;;;2.97;;
43509;SDS011;29105;57.764;40.952;2023-09-18T01:16:59;7.43;;;3.10;;
43509;SDS011;29105;57.764;40.952;2023-09-18T01:19:38;6.22;;;3.45;;
43509;SDS011;29105;57.764;40.952;2023-09-18T01:22:10;6.50;;;3.25;;
43509;SDS011;29105;57.764;40.952;2023-09-18T01:24:36;4.60;;;3.28;;
43509;SDS011;29105;57.764;40.952;2023-09-18T01:27:03;5.35;;;3.08;;
43509;SDS011;29105;57.764;40.952;2023-09-18T01:29:32;6.25;;;3.47;;
43509;SDS011;29105;57.764;40.952;2023-09-18T01:31:57;5.53;;;3.03;;
43509;SDS011;29105;57.764;40.952;2023-09-18T01:34:27;8.55;;;3.10;;
43509;SDS011;29105;57.764;40.952;2023-09-18T01:36:57;5.63;;;2.55;;
43509;SDS011;29105;57.764;40.952;2023-09-18T01:39:23;6.88;;;3.33;;
43509;SDS011;29105;57.764;40.952;2023-09-18T01:41:52;4.88;;;2.40;;
43509;SDS011;29105;57.764;40.952;2023-09-18T01:44:18;6.60;;;2.67;;
43509;SDS011;29105;57.764;40.952;2023-09-18T01:46:43;9.57;;;2.83;;
43509;SDS011;29105;57.764;40.952;2023-09-18T01:49:09;6.43;;;3.10;;
43509;SDS011;29105;57.764;40.952;2023-09-18T01:51:35;6.28;;;3.30;;
43509;SDS011;29105;57.764;40.952;2023-09-18T01:54:01;4.47;;;2.28;;
43509;SDS011;29105;57.764;40.952;2023-09-18T01:56:26;6.78;;;3.30;;
43509;SDS011;29105;57.764;40.952;2023-09-18T01:58:52;4.88;;;2.40;;
43509;SDS011;29105;57.764;40.952;2023-09-18T02:01:17;3.90;;;2.40;;
43509;SDS011;29105;57.764;40.952;2023-09-18T02:03:43;8.65;;;3.53;;
43509;SDS011;29105;57.764;40.952;2023-09-18T02:06:11;4.38;;;2.97;;
43509;SDS011;29105;57.764;40.952;2023-09-18T02:08:36;8.82;;;3.22;;
43509;SDS011;29105;57.764;40.952;2023-09-18T02:11:02;5.20;;;2.88;;
43509;SDS011;29105;57.764;40.952;2023-09-18T02:13:31;4.97;;;2.50;;
43509;SDS011;29105;57.764;40.952;2023-09-18T02:15:57;5.25;;;3.65;;
43509;SDS011;29105;57.764;40.952;2023-09-18T02:18:23;8.05;;;2.60;;
43509;SDS011;29105;57.764;40.952;2023-09-18T02:20:48;4.97;;;3.13;;
43509;SDS011;29105;57.764;40.952;2023-09-18T02:23:15;3.38;;;2.28;;
43509;SDS011;29105;57.764;40.952;2023-09-18T02:26:01;4.72;;;3.15;;
43509;SDS011;29105;57.764;40.952;2023-09-18T02:28:26;6.38;;;3.63;;
43509;SDS011;29105;57.764;40.952;2023-09-18T02:30:52;4.90;;;2.63;;
43509;SDS011;29105;57.764;40.952;2023-09-18T02:33:18;6.38;;;3.42;;
43509;SDS011;29105;57.764;40.952;2023-09-18T02:35:43;4.88;;;2.88;;
43509;SDS011;29105;57.764;40.952;2023-09-18T02:38:09;6.80;;;3.80;;
43509;SDS011;29105;57.764;40.952;2023-09-18T02:40:35;9.00;;;3.85;;
43509;SDS011;29105;57.764;40.952;2023-09-18T02:43:00;6.18;;;3.40;;
43509;SDS011;29105;57.764;40.952;2023-09-18T02:45:27;5.03;;;2.55;;
43509;SDS011;29105;57.764;40.952;2023-09-18T02:47:53;4.93;;;2.58;;
43509;SDS011;29105;57.764;40.952;2023-09-18T02:50:18;7.38;;;3.33;;
43509;SDS011;29105;57.764;40.952;2023-09-18T02:52:44;5.00;;;2.53;;
43509;SDS011;29105;57.764;40.952;2023-09-18T02:55:10;6.40;;;3.15;;
43509;SDS011;29105;57.764;40.952;2023-09-18T02:57:36;4.57;;;3.10;;
43509;SDS011;29105;57.764;40.952;2023-09-18T03:00:01;5.03;;;3.05;;
43509;SDS011;29105;57.764;40.952;2023-09-18T03:02:30;5.00;;;2.95;;
43509;SDS011;29105;57.764;40.952;2023-09-18T03:04:55;6.47;;;3.53;;
43509;SDS011;29105;57.764;40.952;2023-09-18T03:07:21;5.60;;;3.50;;
43509;SDS011;29105;57.764;40.952;2023-09-18T03:09:47;6.72;;;3.17;;
43509;SDS011;29105;57.764;40.952;2023-09-18T03:12:13;3.83;;;2.40;;
43509;SDS011;29105;57.764;40.952;2023-09-18T03:14:39;6.18;;;3.20;;
43509;SDS011;29105;57.764;40.952;2023-09-18T03:17:12;6.90;;;3.72;;
43509;SDS011;29105;57.764;40.952;2023-09-18T03:19:37;8.20;;;3.78;;
43509;SDS011;29105;57.764;40.952;2023-09-18T03:22:03;5.28;;;3.05;;
43509;SDS011;29105;57.764;40.952;2023-09-18T03:24:29;4.65;;;3.08;;
43509;SDS011;29105;57.764;40.952;2023-09-18T03:26:55;7.75;;;3.55;;
43509;SDS011;29105;57.764;40.952;2023-09-18T03:29:20;6.85;;;4.32;;
43509;SDS011;29105;57.764;40.952;2023-09-18T03:31:46;5.53;;;3.00;;
43509;SDS011;29105;57.764;40.952;2023-09-18T03:34:12;11.30;;;7.05;;
43509;SDS011;29105;57.764;40.952;2023-09-18T03:36:38;8.90;;;4.07;;
43509;SDS011;29105;57.764;40.952;2023-09-18T03:39:04;8.38;;;3.17;;
43509;SDS011;29105;57.764;40.952;2023-09-18T03:41:30;7.32;;;4.75;;
43509;SDS011;29105;57.764;40.952;2023-09-18T03:44:02;7.22;;;4.43;;
43509;SDS011;29105;57.764;40.952;2023-09-18T03:46:28;5.55;;;3.58;;
43509;SDS011;29105;57.764;40.952;2023-09-18T03:48:53;5.72;;;2.88;;
43509;SDS011;29105;57.764;40.952;2023-09-18T03:51:20;4.57;;;3.22;;
43509;SDS011;29105;57.764;40.952;2023-09-18T03:53:46;4.40;;;2.60;;
43509;SDS011;29105;57.764;40.952;2023-09-18T03:56:13;5.68;;;3.17;;
43509;SDS011;29105;57.764;40.952;2023-09-18T03:58:39;4.38;;;3.25;;
43509;SDS011;29105;57.764;40.952;2023-09-18T04:01:04;7.07;;;4.15;;
43509;SDS011;29105;57.764;40.952;2023-09-18T04:03:30;4.68;;;3.33;;
43509;SDS011;29105;57.764;40.952;2023-09-18T04:05:55;7.80;;;4.35;;
43509;SDS011;29105;57.764;40.952;2023-09-18T04:08:21;4.43;;;3.17;;
43509;SDS011;29105;57.764;40.952;2023-09-18T04:10:47;4.25;;;3.47;;
43509;SDS011;29105;57.764;40.952;2023-09-18T04:13:13;6.65;;;3.20;;
43509;SDS011;29105;57.764;40.952;2023-09-18T04:15:39;7.38;;;2.97;;
43509;SDS011;29105;57.764;40.952;2023-09-18T04:18:05;3.85;;;2.40;;
43509;SDS011;29105;57.764;40.952;2023-09-18T04:20:31;4.43;;;2.78;;
43509;SDS011;29105;57.764;40.952;2023-09-18T04:25:48;6.53;;;2.83;;
43509;SDS011;29105;57.764;40.952;2023-09-18T04:28:16;5.40;;;2.53;;
43509;SDS011;29105;57.764;40.952;2023-09-18T04:30:43;4.75;;;2.70;;
43509;SDS011;29105;57.764;40.952;2023-09-18T04:33:08;3.90;;;2.33;;
43509;SDS011;29105;57.764;40.952;2023-09-18T04:35:34;4.25;;;2.40;;
43509;SDS011;29105;57.764;40.952;2023-09-18T04:38:00;4.03;;;1.67;;
43509;SDS011;29105;57.764;40.952;2023-09-18T04:40:26;3.83;;;2.33;;
43509;SDS011;29105;57.764;40.952;2023-09-18T04:42:52;4.18;;;2.90;;
43509;SDS011;29105;57.764;40.952;2023-09-18T04:45:18;12.98;;;2.67;;
43509;SDS011;29105;57.764;40.952;2023-09-18T04:47:43;4.25;;;2.67;;
43509;SDS011;29105;57.764;40.952;2023-09-18T04:50:09;4.05;;;2.50;;
43509;SDS011;29105;57.764;40.952;2023-09-18T04:52:38;3.92;;;2.33;;
43509;SDS011;29105;57.764;40.952;2023-09-18T04:55:05;1.98;;;1.45;;
43509;SDS011;29105;57.764;40.952;2023-09-18T04:57:32;4.53;;;2.03;;
43509;SDS011;29105;57.764;40.952;2023-09-18T04:59:57;3.00;;;1.38;;
43509;SDS011;29105;57.764;40.952;2023-09-18T05:02:23;3.95;;;1.98;;
43509;SDS011;29105;57.764;40.952;2023-09-18T05:04:51;3.67;;;2.13;;
43509;SDS011;29105;57.764;40.952;2023-09-18T05:07:17;3.47;;;1.67;;
43509;SDS011;29105;57.764;40.952;2023-09-18T05:09:42;6.70;;;1.83;;
43509;SDS011;29105;57.764;40.952;2023-09-18T05:12:08;3.15;;;1.98;;
43509;SDS011;29105;57.764;40.952;2023-09-18T05:14:42;4.75;;;1.77;;
43509;SDS011;29105;57.764;40.952;2023-09-18T05:17:15;3.38;;;1.67;;
43509;SDS011;29105;57.764;40.952;2023-09-18T05:19:42;3.83;;;1.92;;
43509;SDS011;29105;57.764;40.952;2023-09-18T05:22:11;2.20;;;1.58;;
43509;SDS011;29105;57.764;40.952;2023-09-18T05:24:39;4.07;;;1.80;;
43509;SDS011;29105;57.764;40.952;2023-09-18T05:27:05;5.43;;;1.85;;
43509;SDS011;29105;57.764;40.952;2023-09-18T05:29:32;4.20;;;2.03;;
43509;SDS011;29105;57.764;40.952;2023-09-18T05:31:58;2.40;;;1.58;;
43509;SDS011;29105;57.764;40.952;2023-09-18T05:34:24;4.38;;;1.85;;
43509;SDS011;29105;57.764;40.952;2023-09-18T05:36:52;2.58;;;1.83;;
43509;SDS011;29105;57.764;40.952;2023-09-18T05:39:18;6.30;;;1.40;;
43509;SDS011;29105;57.764;40.952;2023-09-18T05:41:43;2.60;;;1.65;;
43509;SDS011;29105;57.764;40.952;2023-09-18T05:44:09;5.32;;;1.20;;
43509;SDS011;29105;57.764;40.952;2023-09-18T05:46:35;4.82;;;1.45;;
43509;SDS011;29105;57.764;40.952;2023-09-18T05:49:01;1.83;;;1.10;;
43509;SDS011;29105;57.764;40.952;2023-09-18T05:51:27;1.92;;;0.90;;
43509;SDS011;29105;57.764;40.952;2023-09-18T05:53:53;2.10;;;1.10;;
43509;SDS011;29105;57.764;40.952;2023-09-18T05:56:19;2.63;;;1.00;;
43509;SDS011;29105;57.764;40.952;2023-09-18T05:58:45;1.55;;;0.50;;
43509;SDS011;29105;57.764;40.952;2023-09-18T06:01:10;2.20;;;0.40;;
43509;SDS011;29105;57.764;40.952;2023-09-18T06:03:36;2.38;;;0.50;;
43509;SDS011;29105;57.764;40.952;2023-09-18T06:06:02;7.57;;;0.47;;
43509;SDS011;29105;57.764;40.952;2023-09-18T06:08:28;2.63;;;0.65;;
43509;SDS011;29105;57.764;40.952;2023-09-18T06:10:56;5.20;;;1.15;;
43509;SDS011;29105;57.764;40.952;2023-09-18T06:13:23;3.33;;;0.40;;
43509;SDS011;29105;57.764;40.952;2023-09-18T06:15:50;2.35;;;0.57;;
43509;SDS011;29105;57.764;40.952;2023-09-18T06:18:18;4.38;;;0.60;;
43509;SDS011;29105;57.764;40.952;2023-09-18T06:20:46;4.50;;;0.73;;
43509;SDS011;29105;57.764;40.952;2023-09-18T06:23:12;8.23;;;0.82;;
43509;SDS011;29105;57.764;40.952;2023-09-18T06:25:38;11.52;;;1.23;;
43509;SDS011;29105;57.764;40.952;2023-09-18T06:28:04;0.80;;;0.40;;
43509;SDS011;29105;57.764;40.952;2023-09-18T06:30:30;2.33;;;0.63;;
43509;SDS011;29105;57.764;40.952;2023-09-18T06:32:58;3.13;;;0.40;;
43509;SDS011;29105;57.764;40.952;2023-09-18T06:35:24;0.73;;;0.30;;
43509;SDS011;29105;57.764;40.952;2023-09-18T06:37:50;3.42;;;0.60;;
43509;SDS011;29105;57.764;40.952;2023-09-18T06:40:16;31.75;;;2.50;;
43509;SDS011;29105;57.764;40.952;2023-09-18T06:42:42;2.85;;;0.43;;
43509;SDS011;29105;57.764;40.952;2023-09-18T06:45:08;4.63;;;0.50;;
43509;SDS011;29105;57.764;40.952;2023-09-18T06:47:34;0.50;;;0.30;;
43509;SDS011;29105;57.764;40.952;2023-09-18T06:50:00;4.15;;;0.40;;
43509;SDS011;29105;57.764;40.952;2023-09-18T06:52:26;1.30;;;0.40;;
43509;SDS011;29105;57.764;40.952;2023-09-18T06:54:53;3.35;;;0.93;;
43509;SDS011;29105;57.764;40.952;2023-09-18T06:57:19;1.33;;;0.68;;
43509;SDS011;29105;57.764;40.952;2023-09-18T06:59:46;2.15;;;0.25;;
43509;SDS011;29105;57.764;40.952;2023-09-18T07:02:12;1.77;;;0.40;;
43509;SDS011;29105;57.764;40.952;2023-09-18T07:04:40;1.83;;;0.50;;
43509;SDS011;29105;57.764;40.952;2023-09-18T07:07:13;4.78;;;0.60;;
43509;SDS011;29105;57.764;40.952;2023-09-18T07:09:40;1.13;;;0.15;;
43509;SDS011;29105;57.764;40.952;2023-09-18T07:12:07;3.80;;;0.40;;
43509;SDS011;29105;57.764;40.952;2023-09-18T07:14:34;3.15;;;0.17;;
43509;SDS011;29105;57.764;40.952;2023-09-18T07:17:00;0.88;;;0.20;;
43509;SDS011;29105;57.764;40.952;2023-09-18T07:19:27;4.88;;;0.28;;
43509;SDS011;29105;57.764;40.952;2023-09-18T07:21:53;5.75;;;0.50;;
43509;SDS011;29105;57.764;40.952;2023-09-18T07:24:18;2.00;;;0.28;;
43509;SDS011;29105;57.764;40.952;2023-09-18T07:26:46;5.75;;;0.30;;
43509;SDS011;29105;57.764;40.952;2023-09-18T07:29:15;0.80;;;0.22;;
43509;SDS011;29105;57.764;40.952;2023-09-18T07:31:42;2.47;;;0.20;;
43509;SDS011;29105;57.764;40.952;2023-09-18T07:34:08;5.97;;;0.38;;
43509;SDS011;29105;57.764;40.952;2023-09-18T07:36:34;1.08;;;0.20;;
43509;SDS011;29105;57.764;40.952;2023-09-18T07:39:00;3.50;;;0.20;;
43509;SDS011;29105;57.764;40.952;2023-09-18T07:41:26;1.05;;;0.10;;
43509;SDS011;29105;57.764;40.952;2023-09-18T07:43:52;0.50;;;0.10;;
43509;SDS011;29105;57.764;40.952;2023-09-18T07:46:18;2.03;;;0.17;;
43509;SDS011;29105;57.764;40.952;2023-09-18T07:48:43;1.08;;;0.10;;
43509;SDS011;29105;57.764;40.952;2023-09-18T07:51:12;0.20;;;0.00;;
43509;SDS011;29105;57.764;40.952;2023-09-18T07:53:38;2.78;;;0.10;;
43509;SDS011;29105;57.764;40.952;2023-09-18T07:56:04;3.97;;;0.20;;
43509;SDS011;29105;57.764;40.952;2023-09-18T07:58:31;1.55;;;0.20;;
43509;SDS011;29105;57.764;40.952;2023-09-18T08:00:58;1.38;;;0.00;;
43509;SDS011;29105;57.764;40.952;2023-09-18T08:03:24;0.68;;;0.05;;
43509;SDS011;29105;57.764;40.952;2023-09-18T08:05:54;1.25;;;0.10;;
43509;SDS011;29105;57.764;40.952;2023-09-18T08:08:20;1.15;;;0.00;;
43509;SDS011;29105;57.764;40.952;2023-09-18T08:10:47;4.18;;;0.47;;
43509;SDS011;29105;57.764;40.952;2023-09-18T08:13:13;2.25;;;0.05;;
43509;SDS011;29105;57.764;40.952;2023-09-18T08:15:39;2.88;;;0.13;;
43509;SDS011;29105;57.764;40.952;2023-09-18T08:18:04;1.77;;;0.03;;
43509;SDS011;29105;57.764;40.952;2023-09-18T08:20:30;2.95;;;0.10;;
43509;SDS011;29105;57.764;40.952;2023-09-18T08:22:56;7.20;;;0.20;;
43509;SDS011;29105;57.764;40.952;2023-09-18T08:25:22;2.28;;;0.10;;
43509;SDS011;29105;57.764;40.952;2023-09-18T08:27:48;0.55;;;0.10;;
43509;SDS011;29105;57.764;40.952;2023-09-18T08:30:14;0.47;;;0.08;;
43509;SDS011;29105;57.764;40.952;2023-09-18T08:32:42;0.50;;;0.08;;
43509;SDS011;29105;57.764;40.952;2023-09-18T08:35:08;4.95;;;0.10;;
43509;SDS011;29105;57.764;40.952;2023-09-18T08:37:34;1.77;;;0.10;;
43509;SDS011;29105;57.764;40.952;2023-09-18T08:40:00;0.50;;;0.10;;
43509;SDS011;29105;57.764;40.952;2023-09-18T08:42:27;2.78;;;0.20;;
43509;SDS011;29105;57.764;40.952;2023-09-18T08:44:56;2.45;;;0.10;;
43509;SDS011;29105;57.764;40.952;2023-09-18T08:47:24;1.45;;;0.10;;
43509;SDS011;29105;57.764;40.952;2023-09-18T08:49:50;2.25;;;0.20;;
43509;SDS011;29105;57.764;40.952;2023-09-18T08:52:16;1.88;;;0.10;;
43509;SDS011;29105;57.764;40.952;2023-09-18T08:54:42;1.30;;;0.10;;
43509;SDS011;29105;57.764;40.952;2023-09-18T08:57:09;1.48;;;0.10;;
43509;SDS011;29105;57.764;40.952;2023-09-18T08:59:35;3.47;;;0.10;;
43509;SDS011;29105;57.764;40.952;2023-09-18T09:02:03;4.75;;;0.10;;
43509;SDS011;29105;57.764;40.952;2023-09-18T09:04:29;1.90;;;0.20;;
43509;SDS011;29105;57.764;40.952;2023-09-18T09:06:55;0.20;;;0.00;;
43509;SDS011;29105;57.764;40.952;2023-09-18T09:09:25;1.75;;;0.10;;
43509;SDS011;29105;57.764;40.952;2023-09-18T09:11:53;1.60;;;0.00;;
43509;SDS011;29105;57.764;40.952;2023-09-18T09:14:19;0.60;;;0.00;;
43509;SDS011;29105;57.764;40.952;2023-09-18T09:16:47;0.80;;;0.15;;
43509;SDS011;29105;57.764;40.952;2023-09-18T09:19:35;1.90;;;0.17;;
43509;SDS011;29105;57.764;40.952;2023-09-18T09:22:04;1.50;;;0.05;;
43509;SDS011;29105;57.764;40.952;2023-09-18T09:24:37;2.72;;;0.63;;
43509;SDS011;29105;57.764;40.952;2023-09-18T09:27:03;3.28;;;0.25;;
43509;SDS011;29105;57.764;40.952;2023-09-18T09:29:29;2.40;;;0.30;;
43509;SDS011;29105;57.764;40.952;2023-09-18T09:31:55;1.25;;;0.13;;
43509;SDS011;29105;57.764;40.952;2023-09-18T09:34:26;3.90;;;0.30;;
43509;SDS011;29105;57.764;40.952;2023-09-18T09:36:55;1.08;;;0.10;;
43509;SDS011;29105;57.764;40.952;2023-09-18T09:39:23;1.70;;;0.30;;
43509;SDS011;29105;57.764;40.952;2023-09-18T09:41:51;2.38;;;0.10;;
43509;SDS011;29105;57.764;40.952;2023-09-18T09:44:18;0.80;;;0.00;;
43509;SDS011;29105;57.764;40.952;2023-09-18T09:46:49;0.10;;;0.00;;
43509;SDS011;29105;57.764;40.952;2023-09-18T09:49:15;1.50;;;0.00;;
43509;SDS011;29105;57.764;40.952;2023-09-18T09:51:41;0.75;;;0.15;;
43509;SDS011;29105;57.764;40.952;2023-09-18T09:54:07;1.77;;;0.13;;
43509;SDS011;29105;57.764;40.952;2023-09-18T09:56:46;0.63;;;0.10;;
43509;SDS011;29105;57.764;40.952;2023-09-18T09:59:14;1.55;;;0.30;;
43509;SDS011;29105;57.764;40.952;2023-09-18T10:01:40;2.60;;;0.13;;
43509;SDS011;29105;57.764;40.952;2023-09-18T10:04:16;0.70;;;0.13;;
43509;SDS011;29105;57.764;40.952;2023-09-18T10:06:44;3.65;;;0.32;;
43509;SDS011;29105;57.764;40.952;2023-09-18T10:09:12;1.55;;;0.10;;
43509;SDS011;29105;57.764;40.952;2023-09-18T10:11:43;6.57;;;0.52;;
43509;SDS011;29105;57.764;40.952;2023-09-18T10:14:12;1.98;;;0.10;;
43509;SDS011;29105;57.764;40.952;2023-09-18T10:16:49;1.77;;;0.20;;
43509;SDS011;29105;57.764;40.952;2023-09-18T10:21:53;0.65;;;0.10;;
43509;SDS011;29105;57.764;40.952;2023-09-18T10:24:28;2.53;;;0.15;;
43509;SDS011;29105;57.764;40.952;2023-09-18T10:26:58;4.65;;;0.57;;
43509;SDS011;29105;57.764;40.952;2023-09-18T10:29:26;0.43;;;0.05;;
43509;SDS011;29105;57.764;40.952;2023-09-18T10:31:53;3.03;;;0.10;;
43509;SDS011;29105;57.764;40.952;2023-09-18T10:34:20;4.00;;;0.13;;
43509;SDS011;29105;57.764;40.952;2023-09-18T10:36:48;6.88;;;1.30;;
43509;SDS011;29105;57.764;40.952;2023-09-18T10:39:20;2.40;;;0.90;;
43509;SDS011;29105;57.764;40.952;2023-09-18T10:41:55;5.82;;;1.35;;
43509;SDS011;29105;57.764;40.952;2023-09-18T10:44:27;1.85;;;0.20;;
43509;SDS011;29105;57.764;40.952;2023-09-18T10:46:53;4.38;;;0.10;;
43509;SDS011;29105;57.764;40.952;2023-09-18T10:49:20;4.35;;;0.25;;
43509;SDS011;29105;57.764;40.952;2023-09-18T10:51:47;1.63;;;0.22;;
43509;SDS011;29105;57.764;40.952;2023-09-18T10:54:17;3.55;;;0.10;;
43509;SDS011;29105;57.764;40.952;2023-09-18T10:56:46;0.70;;;0.22;;
43509;SDS011;29105;57.764;40.952;2023-09-18T10:59:13;2.17;;;0.10;;
43509;SDS011;29105;57.764;40.952;2023-09-18T11:01:39;1.10;;;0.00;;
43509;SDS011;29105;57.764;40.952;2023-09-18T11:04:06;1.30;;;0.00;;
43509;SDS011;29105;57.764;40.952;2023-09-18T11:09:21;1.25;;;0.00;;
43509;SDS011;29105;57.764;40.952;2023-09-18T11:11:53;1.25;;;0.10;;
43509;SDS011;29105;57.764;40.952;2023-09-18T11:14:23;1.45;;;0.10;;
43509;SDS011;29105;57.764;40.952;2023-09-18T11:22:38;2.28;;;0.10;;
43509;SDS011;29105;57.764;40.952;2023-09-18T11:28:03;5.75;;;0.60;;
43509;SDS011;29105;57.764;40.952;2023-09-18T11:30:36;3.03;;;0.20;;
43509;SDS011;29105;57.764;40.952;2023-09-18T11:33:06;1.23;;;0.00;;
43509;SDS011;29105;57.764;40.952;2023-09-18T11:35:33;6.10;;;0.10;;
43509;SDS011;29105;57.764;40.952;2023-09-18T11:38:06;3.03;;;0.10;;
43509;SDS011;29105;57.764;40.952;2023-09-18T11:40:36;1.30;;;0.17;;
43509;SDS011;29105;57.764;40.952;2023-09-18T11:43:46;1.48;;;0.10;;
43509;SDS011;29105;57.764;40.952;2023-09-18T11:45:57;2.88;;;0.35;;
43509;SDS011;29105;57.764;40.952;2023-09-18T11:48:25;2.60;;;0.28;;
43509;SDS011;29105;57.764;40.952;2023-09-18T11:50:56;3.22;;;0.35;;
43509;SDS011;29105;57.764;40.952;2023-09-18T11:53:23;0.22;;;0.05;;
43509;SDS011;29105;57.764;40.952;2023-09-18T11:55:49;2.53;;;0.10;;
43509;SDS011;29105;57.764;40.952;2023-09-18T11:58:15;4.57;;;0.30;;
43509;SDS011;29105;57.764;40.952;2023-09-18T12:00:41;2.72;;;0.20;;
43509;SDS011;29105;57.764;40.952;2023-09-18T12:03:16;5.03;;;0.40;;
43509;SDS011;29105;57.764;40.952;2023-09-18T12:05:43;4.22;;;0.43;;
43509;SDS011;29105;57.764;40.952;2023-09-18T12:08:10;1.33;;;0.38;;
43509;SDS011;29105;57.764;40.952;2023-09-18T12:10:37;2.05;;;0.52;;
43509;SDS011;29105;57.764;40.952;2023-09-18T12:13:06;0.52;;;0.20;;
43509;SDS011;29105;57.764;40.952;2023-09-18T12:15:35;6.63;;;0.40;;
43509;SDS011;29105;57.764;40.952;2023-09-18T12:18:10;6.85;;;0.30;;
43509;SDS011;29105;57.764;40.952;2023-09-18T12:20:48;2.33;;;0.40;;
43509;SDS011;29105;57.764;40.952;2023-09-18T12:23:15;1.60;;;0.30;;
43509;SDS011;29105;57.764;40.952;2023-09-18T12:25:41;2.00;;;0.43;;
43509;SDS011;29105;57.764;40.952;2023-09-18T12:28:07;6.60;;;0.55;;
43509;SDS011;29105;57.764;40.952;2023-09-18T12:30:33;5.85;;;0.50;;
43509;SDS011;29105;57.764;40.952;2023-09-18T12:32:59;2.20;;;0.70;;
43509;SDS011;29105;57.764;40.952;2023-09-18T12:35:25;1.95;;;1.00;;
43509;SDS011;29105;57.764;40.952;2023-09-18T12:38:00;8.85;;;1.35;;
43509;SDS011;29105;57.764;40.952;2023-09-18T12:40:30;3.30;;;0.95;;
43509;SDS011;29105;57.764;40.952;2023-09-18T12:42:59;7.50;;;1.08;;
43509;SDS011;29105;57.764;40.952;2023-09-18T12:45:25;7.22;;;2.20;;
43509;SDS011;29105;57.764;40.952;2023-09-18T12:47:53;3.33;;;1.55;;
43509;SDS011;29105;57.764;40.952;2023-09-18T12:50:19;5.53;;;1.40;;
43509;SDS011;29105;57.764;40.952;2023-09-18T12:52:45;4.40;;;0.98;;
43509;SDS011;29105;57.764;40.952;2023-09-18T12:55:23;4.78;;;1.35;;
43509;SDS011;29105;57.764;40.952;2023-09-18T12:57:51;4.75;;;1.85;;
43509;SDS011;29105;57.764;40.952;2023-09-18T13:00:21;2.95;;;0.93;;
43509;SDS011;29105;57.764;40.952;2023-09-18T13:02:48;7.27;;;1.20;;
43509;SDS011;29105;57.764;40.952;2023-09-18T13:05:20;3.42;;;1.15;;
43509;SDS011;29105;57.764;40.952;2023-09-18T13:07:52;4.82;;;1.05;;
43509;SDS011;29105;57.764;40.952;2023-09-18T13:10:19;3.92;;;1.23;;
43509;SDS011;29105;57.764;40.952;2023-09-18T13:12:50;3.83;;;1.83;;
43509;SDS011;29105;57.764;40.952;2023-09-18T13:15:24;2.87;;;1.30;;
43509;SDS011;29105;57.764;40.952;2023-09-18T13:18:00;2.65;;;0.55;;
43509;SDS011;29105;57.764;40.952;2023-09-18T13:20:29;4.25;;;0.50;;
43509;SDS011;29105;57.764;40.952;2023-09-18T13:22:56;4.72;;;0.70;;
43509;SDS011;29105;57.764;40.952;2023-09-18T13:25:23;9.07;;;1.25;;
43509;SDS011;29105;57.764;40.952;2023-09-18T13:27:51;5.20;;;0.47;;
43509;SDS011;29105;57.764;40.952;2023-09-18T13:30:17;0.88;;;0.50;;
43509;SDS011;29105;57.764;40.952;2023-09-18T13:32:44;4.55;;;1.08;;
43509;SDS011;29105;57.764;40.952;2023-09-18T13:35:10;0.93;;;0.50;;
43509;SDS011;29105;57.764;40.952;2023-09-18T13:37:39;1.80;;;0.60;;
43509;SDS011;29105;57.764;40.952;2023-09-18T13:40:05;1.92;;;0.50;;
43509;SDS011;29105;57.764;40.952;2023-09-18T13:42:32;3.25;;;0.70;;
43509;SDS011;29105;57.764;40.952;2023-09-18T13:44:58;5.22;;;1.08;;
43509;SDS011;29105;57.764;40.952;2023-09-18T13:47:33;4.32;;;1.10;;
43509;SDS011;29105;57.764;40.952;2023-09-18T13:50:00;5.03;;;1.20;;
43509;SDS011;29105;57.764;40.952;2023-09-18T13:52:30;2.03;;;0.47;;
43509;SDS011;29105;57.764;40.952;2023-09-18T13:55:01;10.48;;;0.82;;
43509;SDS011;29105;57.764;40.952;2023-09-18T13:57:31;5.95;;;0.55;;
43509;SDS011;29105;57.764;40.952;2023-09-18T13:59:57;1.70;;;0.65;;
43509;SDS011;29105;57.764;40.952;2023-09-18T14:02:24;1.67;;;0.40;;
43509;SDS011;29105;57.764;40.952;2023-09-18T14:04:55;4.00;;;0.77;;
43509;SDS011;29105;57.764;40.952;2023-09-18T14:07:21;3.10;;;0.70;;
43509;SDS011;29105;57.764;40.952;2023-09-18T14:09:47;5.32;;;0.63;;
43509;SDS011;29105;57.764;40.952;2023-09-18T14:12:13;3.22;;;0.22;;
43509;SDS011;29105;57.764;40.952;2023-09-18T14:14:41;7.47;;;0.90;;
43509;SDS011;29105;57.764;40.952;2023-09-18T14:17:07;13.68;;;2.17;;
43509;SDS011;29105;57.764;40.952;2023-09-18T14:19:34;1.77;;;0.52;;
43509;SDS011;29105;57.764;40.952;2023-09-18T14:22:00;1.48;;;0.50;;
43509;SDS011;29105;57.764;40.952;2023-09-18T14:24:32;2.38;;;0.70;;
43509;SDS011;29105;57.764;40.952;2023-09-18T14:27:02;4.20;;;0.70;;
43509;SDS011;29105;57.764;40.952;2023-09-18T14:29:28;2.78;;;0.45;;
43509;SDS011;29105;57.764;40.952;2023-09-18T14:31:57;1.95;;;0.35;;
43509;SDS011;29105;57.764;40.952;2023-09-18T14:34:23;3.15;;;0.77;;
43509;SDS011;29105;57.764;40.952;2023-09-18T14:36:48;4.45;;;0.60;;
43509;SDS011;29105;57.764;40.952;2023-09-18T14:39:14;4.38;;;0.82;;
43509;SDS011;29105;57.764;40.952;2023-09-18T14:41:40;2.50;;;0.60;;
43509;SDS011;29105;57.764;40.952;2023-09-18T14:44:07;4.35;;;0.63;;
43509;SDS011;29105;57.764;40.952;2023-09-18T14:46:37;1.90;;;0.80;;
43509;SDS011;29105;57.764;40.952;2023-09-18T14:49:06;1.42;;;0.60;;
43509;SDS011;29105;57.764;40.952;2023-09-18T14:54:01;2.53;;;0.88;;
43509;SDS011;29105;57.764;40.952;2023-09-18T14:56:28;4.80;;;1.10;;